Archival Weather

Chicago O'Hare International

Chicago, Illinois (KORD)

Report from: Sunday, March 6, 2022 11:51 AM CST
Current time: Saturday, February 4, 2023 11:02 PM CST

Current weather
Weather history
Weather forecast

Temperature2.2°C (36.0°F)
Wind chill-3.5°C (25.6°F)
Dew point-3.3°C (26.1°F)
Winds 16 kts (8.2 m/s, 18.4 mph) West (280°)
Wind gusts 27 kts (13.9 m/s, 31.1 mph)
Peak wind 28 kts (14.4 m/s, 32.2 mph) West (260°) at 11:22
Visibility10 mi. (16.1 km)
Clouds Ceiling: Broken clouds 2,300 ft. (701 m)
Altimeter30.00 in.Hg (1016 mB)
Relative humidity67 %
Density altitude-1,572 ft. (-479 m)
Sea-level pressure101.6 kPa (1016 mB, 30.01 in.Hg)
Max temp last 6 hours3.3°C (37.9°F)
Min temp last 6 hours2.2°C (36.0°F)
Remarks System requires maintenance
Automated weather observing station with precipitation discriminator
Pressure rising more slowly
Flight conditions Marginal Visual Meteorological Conditions
Raw dataKORD 061751Z 28016G27KT 10SM BKN023 02/M03 A3000 RMK AO2 PK WND 26028/1722 SLP163 T00221033 10033 20022 51028 $
An unhandled exception has occurred. See browser dev tools for details. Reload 🗙